sensor_id;sensor_type;location;lat;lon;timestamp;P1;durP1;ratioP1;P2;durP2;ratioP2
23588;SDS011;11972;48.078;11.876;2023-01-15T00:00:57;1.75;;;1.48;;
23588;SDS011;11972;48.078;11.876;2023-01-15T00:04:58;2.03;;;1.83;;
23588;SDS011;11972;48.078;11.876;2023-01-15T00:09:01;1.80;;;1.60;;
23588;SDS011;11972;48.078;11.876;2023-01-15T00:13:02;1.67;;;1.58;;
23588;SDS011;11972;48.078;11.876;2023-01-15T00:17:02;1.58;;;1.27;;
23588;SDS011;11972;48.078;11.876;2023-01-15T00:21:04;2.20;;;1.50;;
23588;SDS011;11972;48.078;11.876;2023-01-15T00:25:06;1.75;;;1.40;;
23588;SDS011;11972;48.078;11.876;2023-01-15T00:29:25;1.67;;;1.25;;
23588;SDS011;11972;48.078;11.876;2023-01-15T00:33:26;2.28;;;1.50;;
23588;SDS011;11972;48.078;11.876;2023-01-15T00:37:27;2.25;;;1.60;;
23588;SDS011;11972;48.078;11.876;2023-01-15T00:41:27;2.22;;;1.52;;
23588;SDS011;11972;48.078;11.876;2023-01-15T00:45:27;1.50;;;1.40;;
23588;SDS011;11972;48.078;11.876;2023-01-15T00:49:28;2.67;;;1.80;;
23588;SDS011;11972;48.078;11.876;2023-01-15T00:53:29;1.85;;;1.73;;
23588;SDS011;11972;48.078;11.876;2023-01-15T00:57:29;2.20;;;1.70;;
23588;SDS011;11972;48.078;11.876;2023-01-15T01:01:30;2.67;;;1.70;;
23588;SDS011;11972;48.078;11.876;2023-01-15T01:05:30;2.55;;;1.83;;
23588;SDS011;11972;48.078;11.876;2023-01-15T01:09:31;2.40;;;1.90;;
23588;SDS011;11972;48.078;11.876;2023-01-15T01:13:32;1.60;;;1.43;;
23588;SDS011;11972;48.078;11.876;2023-01-15T01:17:33;2.63;;;1.67;;
23588;SDS011;11972;48.078;11.876;2023-01-15T01:21:33;2.20;;;1.73;;
23588;SDS011;11972;48.078;11.876;2023-01-15T01:25:42;2.10;;;1.50;;
23588;SDS011;11972;48.078;11.876;2023-01-15T01:29:51;1.60;;;1.38;;
23588;SDS011;11972;48.078;11.876;2023-01-15T01:33:53;1.55;;;1.45;;
23588;SDS011;11972;48.078;11.876;2023-01-15T01:37:54;2.42;;;1.60;;
23588;SDS011;11972;48.078;11.876;2023-01-15T01:41:55;2.03;;;1.60;;
23588;SDS011;11972;48.078;11.876;2023-01-15T01:45:55;3.17;;;1.48;;
23588;SDS011;11972;48.078;11.876;2023-01-15T01:50:14;2.00;;;1.77;;
23588;SDS011;11972;48.078;11.876;2023-01-15T01:54:15;1.80;;;1.58;;
23588;SDS011;11972;48.078;11.876;2023-01-15T01:58:19;1.95;;;1.65;;
23588;SDS011;11972;48.078;11.876;2023-01-15T02:02:21;1.67;;;1.10;;
23588;SDS011;11972;48.078;11.876;2023-01-15T02:06:23;1.40;;;1.23;;
23588;SDS011;11972;48.078;11.876;2023-01-15T02:10:25;1.67;;;1.27;;
23588;SDS011;11972;48.078;11.876;2023-01-15T02:14:32;2.08;;;1.33;;
23588;SDS011;11972;48.078;11.876;2023-01-15T02:27:15;1.63;;;1.23;;
23588;SDS011;11972;48.078;11.876;2023-01-15T02:31:26;1.40;;;1.25;;
23588;SDS011;11972;48.078;11.876;2023-01-15T02:39:39;1.95;;;1.20;;
23588;SDS011;11972;48.078;11.876;2023-01-15T02:43:43;1.77;;;1.10;;
23588;SDS011;11972;48.078;11.876;2023-01-15T02:47:47;1.52;;;1.17;;
23588;SDS011;11972;48.078;11.876;2023-01-15T02:51:56;1.55;;;1.35;;
23588;SDS011;11972;48.078;11.876;2023-01-15T03:00:04;1.08;;;0.98;;
23588;SDS011;11972;48.078;11.876;2023-01-15T03:04:16;1.40;;;1.02;;
23588;SDS011;11972;48.078;11.876;2023-01-15T03:08:21;1.23;;;0.93;;
23588;SDS011;11972;48.078;11.876;2023-01-15T03:12:24;1.33;;;1.20;;
23588;SDS011;11972;48.078;11.876;2023-01-15T03:16:48;2.15;;;1.00;;
23588;SDS011;11972;48.078;11.876;2023-01-15T03:20:56;1.45;;;1.20;;
23588;SDS011;11972;48.078;11.876;2023-01-15T03:25:01;1.40;;;1.05;;
23588;SDS011;11972;48.078;11.876;2023-01-15T03:29:03;1.50;;;1.10;;
23588;SDS011;11972;48.078;11.876;2023-01-15T03:33:06;0.93;;;0.80;;
23588;SDS011;11972;48.078;11.876;2023-01-15T03:37:10;1.02;;;0.90;;
23588;SDS011;11972;48.078;11.876;2023-01-15T03:41:18;1.00;;;0.90;;
23588;SDS011;11972;48.078;11.876;2023-01-15T03:45:30;0.85;;;0.80;;
23588;SDS011;11972;48.078;11.876;2023-01-15T03:53:53;1.95;;;0.90;;
23588;SDS011;11972;48.078;11.876;2023-01-15T03:57:58;0.80;;;0.80;;
23588;SDS011;11972;48.078;11.876;2023-01-15T04:02:01;1.65;;;0.90;;
23588;SDS011;11972;48.078;11.876;2023-01-15T04:06:04;1.00;;;0.90;;
23588;SDS011;11972;48.078;11.876;2023-01-15T04:10:06;1.77;;;0.98;;
23588;SDS011;11972;48.078;11.876;2023-01-15T04:14:08;1.05;;;0.85;;
23588;SDS011;11972;48.078;11.876;2023-01-15T04:18:12;1.10;;;0.90;;
23588;SDS011;11972;48.078;11.876;2023-01-15T04:22:13;0.98;;;0.88;;
23588;SDS011;11972;48.078;11.876;2023-01-15T04:26:14;1.55;;;0.80;;
23588;SDS011;11972;48.078;11.876;2023-01-15T04:30:15;1.38;;;0.82;;
23588;SDS011;11972;48.078;11.876;2023-01-15T04:34:16;1.45;;;0.90;;
23588;SDS011;11972;48.078;11.876;2023-01-15T04:38:16;1.33;;;1.00;;
23588;SDS011;11972;48.078;11.876;2023-01-15T04:42:17;1.40;;;1.05;;
23588;SDS011;11972;48.078;11.876;2023-01-15T04:46:39;1.23;;;1.00;;
23588;SDS011;11972;48.078;11.876;2023-01-15T04:50:41;1.00;;;0.90;;
23588;SDS011;11972;48.078;11.876;2023-01-15T04:54:41;1.40;;;0.90;;
23588;SDS011;11972;48.078;11.876;2023-01-15T04:58:42;2.13;;;1.10;;
23588;SDS011;11972;48.078;11.876;2023-01-15T05:02:42;3.58;;;1.40;;
23588;SDS011;11972;48.078;11.876;2023-01-15T05:06:42;1.65;;;1.45;;
23588;SDS011;11972;48.078;11.876;2023-01-15T05:10:43;2.45;;;1.63;;
23588;SDS011;11972;48.078;11.876;2023-01-15T05:14:43;1.10;;;1.00;;
23588;SDS011;11972;48.078;11.876;2023-01-15T05:18:44;1.00;;;0.80;;
23588;SDS011;11972;48.078;11.876;2023-01-15T05:22:45;1.35;;;0.90;;
23588;SDS011;11972;48.078;11.876;2023-01-15T05:26:45;1.13;;;0.70;;
23588;SDS011;11972;48.078;11.876;2023-01-15T05:30:46;1.17;;;0.60;;
23588;SDS011;11972;48.078;11.876;2023-01-15T05:34:46;0.90;;;0.80;;
23588;SDS011;11972;48.078;11.876;2023-01-15T05:38:46;0.80;;;0.77;;
23588;SDS011;11972;48.078;11.876;2023-01-15T05:42:47;1.00;;;0.70;;
23588;SDS011;11972;48.078;11.876;2023-01-15T05:46:47;1.47;;;0.90;;
23588;SDS011;11972;48.078;11.876;2023-01-15T05:50:48;2.28;;;0.82;;
23588;SDS011;11972;48.078;11.876;2023-01-15T05:54:49;1.00;;;0.80;;
23588;SDS011;11972;48.078;11.876;2023-01-15T05:58:49;1.08;;;0.85;;
23588;SDS011;11972;48.078;11.876;2023-01-15T06:02:50;0.80;;;0.80;;
23588;SDS011;11972;48.078;11.876;2023-01-15T06:06:51;0.82;;;0.68;;
23588;SDS011;11972;48.078;11.876;2023-01-15T06:10:52;0.70;;;0.63;;
23588;SDS011;11972;48.078;11.876;2023-01-15T06:14:53;1.10;;;0.90;;
23588;SDS011;11972;48.078;11.876;2023-01-15T06:18:53;0.90;;;0.73;;
23588;SDS011;11972;48.078;11.876;2023-01-15T06:22:53;0.93;;;0.80;;
23588;SDS011;11972;48.078;11.876;2023-01-15T06:26:54;1.48;;;0.93;;
23588;SDS011;11972;48.078;11.876;2023-01-15T06:30:54;1.48;;;0.60;;
23588;SDS011;11972;48.078;11.876;2023-01-15T06:34:54;1.00;;;0.90;;
23588;SDS011;11972;48.078;11.876;2023-01-15T06:38:55;1.60;;;1.08;;
23588;SDS011;11972;48.078;11.876;2023-01-15T06:42:58;1.25;;;0.95;;
23588;SDS011;11972;48.078;11.876;2023-01-15T06:47:17;1.00;;;0.90;;
23588;SDS011;11972;48.078;11.876;2023-01-15T06:51:21;1.23;;;1.10;;
23588;SDS011;11972;48.078;11.876;2023-01-15T06:55:22;1.13;;;0.90;;
23588;SDS011;11972;48.078;11.876;2023-01-15T06:59:23;1.02;;;0.90;;
23588;SDS011;11972;48.078;11.876;2023-01-15T07:03:23;2.75;;;0.98;;
23588;SDS011;11972;48.078;11.876;2023-01-15T07:07:23;0.55;;;0.50;;
23588;SDS011;11972;48.078;11.876;2023-01-15T07:11:24;0.50;;;0.50;;
23588;SDS011;11972;48.078;11.876;2023-01-15T07:15:24;0.85;;;0.55;;
23588;SDS011;11972;48.078;11.876;2023-01-15T07:19:25;0.43;;;0.20;;
23588;SDS011;11972;48.078;11.876;2023-01-15T07:23:26;0.43;;;0.25;;
23588;SDS011;11972;48.078;11.876;2023-01-15T07:27:27;1.52;;;0.28;;
23588;SDS011;11972;48.078;11.876;2023-01-15T07:31:27;0.17;;;0.17;;
23588;SDS011;11972;48.078;11.876;2023-01-15T07:35:27;0.22;;;0.20;;
23588;SDS011;11972;48.078;11.876;2023-01-15T07:39:28;0.13;;;0.13;;
23588;SDS011;11972;48.078;11.876;2023-01-15T07:43:30;0.30;;;0.20;;
23588;SDS011;11972;48.078;11.876;2023-01-15T07:47:49;0.17;;;0.17;;
23588;SDS011;11972;48.078;11.876;2023-01-15T07:52:08;0.20;;;0.20;;
23588;SDS011;11972;48.078;11.876;2023-01-15T07:56:08;0.20;;;0.20;;
23588;SDS011;11972;48.078;11.876;2023-01-15T08:00:11;0.35;;;0.20;;
23588;SDS011;11972;48.078;11.876;2023-01-15T08:04:13;0.50;;;0.22;;
23588;SDS011;11972;48.078;11.876;2023-01-15T08:08:14;0.20;;;0.20;;
23588;SDS011;11972;48.078;11.876;2023-01-15T08:12:16;0.20;;;0.20;;
23588;SDS011;11972;48.078;11.876;2023-01-15T08:16:35;0.10;;;0.10;;
23588;SDS011;11972;48.078;11.876;2023-01-15T08:20:36;0.30;;;0.20;;
23588;SDS011;11972;48.078;11.876;2023-01-15T08:24:36;0.40;;;0.30;;
23588;SDS011;11972;48.078;11.876;2023-01-15T08:28:37;0.10;;;0.10;;
23588;SDS011;11972;48.078;11.876;2023-01-15T08:32:37;1.05;;;0.20;;
23588;SDS011;11972;48.078;11.876;2023-01-15T08:36:38;2.47;;;0.20;;
23588;SDS011;11972;48.078;11.876;2023-01-15T08:40:38;0.40;;;0.28;;
23588;SDS011;11972;48.078;11.876;2023-01-15T08:44:57;0.35;;;0.20;;
23588;SDS011;11972;48.078;11.876;2023-01-15T08:48:57;0.20;;;0.20;;
23588;SDS011;11972;48.078;11.876;2023-01-15T08:52:57;0.20;;;0.20;;
23588;SDS011;11972;48.078;11.876;2023-01-15T08:56:58;1.20;;;0.20;;
23588;SDS011;11972;48.078;11.876;2023-01-15T09:01:03;0.88;;;0.20;;
23588;SDS011;11972;48.078;11.876;2023-01-15T09:05:07;0.30;;;0.20;;
23588;SDS011;11972;48.078;11.876;2023-01-15T09:09:07;0.47;;;0.20;;
23588;SDS011;11972;48.078;11.876;2023-01-15T09:13:08;0.10;;;0.10;;
23588;SDS011;11972;48.078;11.876;2023-01-15T09:17:09;0.20;;;0.10;;
23588;SDS011;11972;48.078;11.876;2023-01-15T09:21:09;0.52;;;0.32;;
23588;SDS011;11972;48.078;11.876;2023-01-15T09:25:09;0.68;;;0.40;;
23588;SDS011;11972;48.078;11.876;2023-01-15T09:29:10;0.30;;;0.30;;
23588;SDS011;11972;48.078;11.876;2023-01-15T09:33:10;0.60;;;0.30;;
23588;SDS011;11972;48.078;11.876;2023-01-15T09:37:10;0.50;;;0.30;;
23588;SDS011;11972;48.078;11.876;2023-01-15T09:41:11;0.40;;;0.25;;
23588;SDS011;11972;48.078;11.876;2023-01-15T09:46:08;0.20;;;0.20;;
23588;SDS011;11972;48.078;11.876;2023-01-15T09:50:23;0.20;;;0.20;;
23588;SDS011;11972;48.078;11.876;2023-01-15T09:55:45;0.75;;;0.35;;
23588;SDS011;11972;48.078;11.876;2023-01-15T09:59:19;0.88;;;0.40;;
23588;SDS011;11972;48.078;11.876;2023-01-15T10:03:33;1.02;;;0.20;;
23588;SDS011;11972;48.078;11.876;2023-01-15T10:07:40;0.28;;;0.20;;
23588;SDS011;11972;48.078;11.876;2023-01-15T10:11:55;0.50;;;0.30;;
23588;SDS011;11972;48.078;11.876;2023-01-15T10:16:23;0.40;;;0.30;;
23588;SDS011;11972;48.078;11.876;2023-01-15T10:24:55;0.35;;;0.20;;
23588;SDS011;11972;48.078;11.876;2023-01-15T10:28:58;0.60;;;0.50;;
23588;SDS011;11972;48.078;11.876;2023-01-15T10:38:14;0.10;;;0.10;;
23588;SDS011;11972;48.078;11.876;2023-01-15T10:43:10;0.00;;;0.00;;
23588;SDS011;11972;48.078;11.876;2023-01-15T10:47:15;0.32;;;0.10;;
23588;SDS011;11972;48.078;11.876;2023-01-15T10:51:21;0.17;;;0.10;;
23588;SDS011;11972;48.078;11.876;2023-01-15T10:55:44;0.10;;;0.10;;
23588;SDS011;11972;48.078;11.876;2023-01-15T10:59:50;0.22;;;0.10;;
23588;SDS011;11972;48.078;11.876;2023-01-15T11:03:56;0.00;;;0.00;;
23588;SDS011;11972;48.078;11.876;2023-01-15T11:07:56;0.32;;;0.10;;
23588;SDS011;11972;48.078;11.876;2023-01-15T11:12:44;0.10;;;0.10;;
23588;SDS011;11972;48.078;11.876;2023-01-15T11:16:23;1.30;;;0.00;;
23588;SDS011;11972;48.078;11.876;2023-01-15T11:20:44;1.17;;;0.10;;
23588;SDS011;11972;48.078;11.876;2023-01-15T11:24:51;0.20;;;0.10;;
23588;SDS011;11972;48.078;11.876;2023-01-15T11:28:54;0.40;;;0.20;;
23588;SDS011;11972;48.078;11.876;2023-01-15T11:32:58;0.10;;;0.10;;
23588;SDS011;11972;48.078;11.876;2023-01-15T11:37:03;0.30;;;0.10;;
23588;SDS011;11972;48.078;11.876;2023-01-15T11:41:04;0.00;;;0.00;;
23588;SDS011;11972;48.078;11.876;2023-01-15T11:45:12;0.13;;;0.13;;
23588;SDS011;11972;48.078;11.876;2023-01-15T11:49:36;0.10;;;0.10;;
23588;SDS011;11972;48.078;11.876;2023-01-15T11:53:58;0.10;;;0.10;;
23588;SDS011;11972;48.078;11.876;2023-01-15T11:58:02;0.10;;;0.10;;
23588;SDS011;11972;48.078;11.876;2023-01-15T12:06:11;0.20;;;0.20;;
23588;SDS011;11972;48.078;11.876;2023-01-15T12:10:15;1.25;;;0.20;;
23588;SDS011;11972;48.078;11.876;2023-01-15T12:31:49;0.45;;;0.30;;
23588;SDS011;11972;48.078;11.876;2023-01-15T12:35:59;0.60;;;0.40;;
23588;SDS011;11972;48.078;11.876;2023-01-15T12:44:35;0.90;;;0.70;;
23588;SDS011;11972;48.078;11.876;2023-01-15T12:49:03;0.60;;;0.57;;
23588;SDS011;11972;48.078;11.876;2023-01-15T12:57:18;1.38;;;0.60;;
23588;SDS011;11972;48.078;11.876;2023-01-15T13:06:08;0.40;;;0.40;;
23588;SDS011;11972;48.078;11.876;2023-01-15T13:10:16;0.40;;;0.30;;
23588;SDS011;11972;48.078;11.876;2023-01-15T13:14:20;0.40;;;0.38;;
23588;SDS011;11972;48.078;11.876;2023-01-15T13:22:40;0.40;;;0.40;;
23588;SDS011;11972;48.078;11.876;2023-01-15T13:26:56;0.40;;;0.40;;
23588;SDS011;11972;48.078;11.876;2023-01-15T13:31:28;0.82;;;0.30;;
23588;SDS011;11972;48.078;11.876;2023-01-15T13:35:49;0.95;;;0.20;;
23588;SDS011;11972;48.078;11.876;2023-01-15T13:44:00;0.22;;;0.20;;
23588;SDS011;11972;48.078;11.876;2023-01-15T13:48:05;0.52;;;0.20;;
23588;SDS011;11972;48.078;11.876;2023-01-15T13:56:34;0.73;;;0.25;;
23588;SDS011;11972;48.078;11.876;2023-01-15T14:00:38;0.17;;;0.17;;
23588;SDS011;11972;48.078;11.876;2023-01-15T14:04:39;0.17;;;0.10;;
23588;SDS011;11972;48.078;11.876;2023-01-15T14:12:48;0.20;;;0.20;;
23588;SDS011;11972;48.078;11.876;2023-01-15T14:25:58;0.25;;;0.25;;
23588;SDS011;11972;48.078;11.876;2023-01-15T14:34:23;0.30;;;0.20;;
23588;SDS011;11972;48.078;11.876;2023-01-15T14:38:27;0.30;;;0.30;;
23588;SDS011;11972;48.078;11.876;2023-01-15T14:42:29;0.10;;;0.10;;
23588;SDS011;11972;48.078;11.876;2023-01-15T14:46:56;0.60;;;0.30;;
23588;SDS011;11972;48.078;11.876;2023-01-15T14:51:13;0.20;;;0.20;;
23588;SDS011;11972;48.078;11.876;2023-01-15T14:55:17;0.30;;;0.20;;
23588;SDS011;11972;48.078;11.876;2023-01-15T14:59:23;0.55;;;0.40;;
23588;SDS011;11972;48.078;11.876;2023-01-15T15:03:36;1.40;;;0.40;;
23588;SDS011;11972;48.078;11.876;2023-01-15T15:07:44;0.70;;;0.50;;
23588;SDS011;11972;48.078;11.876;2023-01-15T15:11:51;0.50;;;0.30;;
23588;SDS011;11972;48.078;11.876;2023-01-15T15:16:26;0.20;;;0.20;;
23588;SDS011;11972;48.078;11.876;2023-01-15T15:24:42;1.40;;;0.70;;
23588;SDS011;11972;48.078;11.876;2023-01-15T15:28:59;0.30;;;0.30;;
23588;SDS011;11972;48.078;11.876;2023-01-15T15:33:03;0.95;;;0.50;;
23588;SDS011;11972;48.078;11.876;2023-01-15T15:37:11;0.95;;;0.47;;
23588;SDS011;11972;48.078;11.876;2023-01-15T15:41:15;0.82;;;0.70;;
23588;SDS011;11972;48.078;11.876;2023-01-15T15:49:46;0.40;;;0.20;;
23588;SDS011;11972;48.078;11.876;2023-01-15T15:53:47;0.40;;;0.32;;
23588;SDS011;11972;48.078;11.876;2023-01-15T15:57:55;2.42;;;0.70;;
23588;SDS011;11972;48.078;11.876;2023-01-15T16:02:14;0.75;;;0.55;;
23588;SDS011;11972;48.078;11.876;2023-01-15T16:06:19;1.10;;;1.00;;
23588;SDS011;11972;48.078;11.876;2023-01-15T16:10:25;0.47;;;0.47;;
23588;SDS011;11972;48.078;11.876;2023-01-15T16:14:31;0.35;;;0.20;;
23588;SDS011;11972;48.078;11.876;2023-01-15T16:18:36;0.20;;;0.20;;
23588;SDS011;11972;48.078;11.876;2023-01-15T16:22:47;0.40;;;0.20;;
23588;SDS011;11972;48.078;11.876;2023-01-15T16:27:13;0.22;;;0.22;;
23588;SDS011;11972;48.078;11.876;2023-01-15T16:31:16;0.10;;;0.10;;
23588;SDS011;11972;48.078;11.876;2023-01-15T16:35:21;0.63;;;0.22;;
23588;SDS011;11972;48.078;11.876;2023-01-15T16:39:32;0.10;;;0.10;;
23588;SDS011;11972;48.078;11.876;2023-01-15T16:43:48;0.10;;;0.10;;
23588;SDS011;11972;48.078;11.876;2023-01-15T16:52:33;0.10;;;0.10;;
23588;SDS011;11972;48.078;11.876;2023-01-15T16:56:54;0.50;;;0.20;;
23588;SDS011;11972;48.078;11.876;2023-01-15T17:00:57;0.20;;;0.20;;
23588;SDS011;11972;48.078;11.876;2023-01-15T17:05:00;0.30;;;0.22;;
23588;SDS011;11972;48.078;11.876;2023-01-15T17:09:13;0.20;;;0.20;;
23588;SDS011;11972;48.078;11.876;2023-01-15T17:13:18;0.28;;;0.20;;
23588;SDS011;11972;48.078;11.876;2023-01-15T17:21:22;0.25;;;0.10;;
23588;SDS011;11972;48.078;11.876;2023-01-15T17:25:30;0.55;;;0.28;;
23588;SDS011;11972;48.078;11.876;2023-01-15T17:29:33;0.40;;;0.20;;
23588;SDS011;11972;48.078;11.876;2023-01-15T17:33:34;1.50;;;0.22;;
23588;SDS011;11972;48.078;11.876;2023-01-15T17:37:34;1.13;;;0.20;;
23588;SDS011;11972;48.078;11.876;2023-01-15T17:41:34;0.30;;;0.30;;
23588;SDS011;11972;48.078;11.876;2023-01-15T17:45:34;0.52;;;0.20;;
23588;SDS011;11972;48.078;11.876;2023-01-15T17:49:35;0.77;;;0.38;;
23588;SDS011;11972;48.078;11.876;2023-01-15T17:53:36;0.43;;;0.30;;
23588;SDS011;11972;48.078;11.876;2023-01-15T17:57:36;1.05;;;0.50;;
23588;SDS011;11972;48.078;11.876;2023-01-15T18:01:55;1.70;;;0.40;;
23588;SDS011;11972;48.078;11.876;2023-01-15T18:06:14;1.00;;;0.45;;
23588;SDS011;11972;48.078;11.876;2023-01-15T18:10:15;0.50;;;0.38;;
23588;SDS011;11972;48.078;11.876;2023-01-15T18:14:17;0.93;;;0.40;;
23588;SDS011;11972;48.078;11.876;2023-01-15T18:18:18;0.80;;;0.25;;
23588;SDS011;11972;48.078;11.876;2023-01-15T18:22:18;0.77;;;0.40;;
23588;SDS011;11972;48.078;11.876;2023-01-15T18:26:19;0.30;;;0.17;;
23588;SDS011;11972;48.078;11.876;2023-01-15T18:30:20;1.23;;;0.20;;
23588;SDS011;11972;48.078;11.876;2023-01-15T18:34:20;0.50;;;0.30;;
23588;SDS011;11972;48.078;11.876;2023-01-15T18:38:21;0.52;;;0.30;;
23588;SDS011;11972;48.078;11.876;2023-01-15T18:42:21;2.20;;;0.30;;
23588;SDS011;11972;48.078;11.876;2023-01-15T18:46:41;1.10;;;0.40;;
23588;SDS011;11972;48.078;11.876;2023-01-15T18:50:45;0.38;;;0.20;;
23588;SDS011;11972;48.078;11.876;2023-01-15T18:54:47;1.42;;;0.30;;
23588;SDS011;11972;48.078;11.876;2023-01-15T18:58:48;0.20;;;0.20;;
23588;SDS011;11972;48.078;11.876;2023-01-15T19:02:48;1.13;;;0.30;;
23588;SDS011;11972;48.078;11.876;2023-01-15T19:06:49;1.27;;;0.30;;
23588;SDS011;11972;48.078;11.876;2023-01-15T19:10:50;0.95;;;0.50;;
23588;SDS011;11972;48.078;11.876;2023-01-15T19:14:51;1.58;;;0.50;;
23588;SDS011;11972;48.078;11.876;2023-01-15T19:23:10;0.70;;;0.40;;
23588;SDS011;11972;48.078;11.876;2023-01-15T19:27:10;1.38;;;0.35;;
23588;SDS011;11972;48.078;11.876;2023-01-15T19:31:11;1.80;;;0.60;;
23588;SDS011;11972;48.078;11.876;2023-01-15T19:35:31;1.17;;;0.50;;
23588;SDS011;11972;48.078;11.876;2023-01-15T19:39:32;0.88;;;0.65;;
23588;SDS011;11972;48.078;11.876;2023-01-15T19:43:32;2.05;;;0.90;;
23588;SDS011;11972;48.078;11.876;2023-01-15T19:52:10;3.87;;;2.60;;
23588;SDS011;11972;48.078;11.876;2023-01-15T19:56:29;3.45;;;2.05;;
23588;SDS011;11972;48.078;11.876;2023-01-15T20:00:30;3.95;;;3.17;;
23588;SDS011;11972;48.078;11.876;2023-01-15T20:04:31;5.57;;;3.83;;
23588;SDS011;11972;48.078;11.876;2023-01-15T20:08:32;3.50;;;3.20;;
23588;SDS011;11972;48.078;11.876;2023-01-15T20:12:32;3.05;;;2.75;;
23588;SDS011;11972;48.078;11.876;2023-01-15T20:16:51;3.47;;;3.17;;
23588;SDS011;11972;48.078;11.876;2023-01-15T20:20:53;5.13;;;3.83;;
23588;SDS011;11972;48.078;11.876;2023-01-15T20:24:54;17.08;;;8.52;;
23588;SDS011;11972;48.078;11.876;2023-01-15T20:28:55;7.32;;;4.95;;
23588;SDS011;11972;48.078;11.876;2023-01-15T20:32:56;14.40;;;8.63;;
23588;SDS011;11972;48.078;11.876;2023-01-15T20:37:03;13.35;;;9.30;;
23588;SDS011;11972;48.078;11.876;2023-01-15T20:41:07;11.85;;;8.13;;
23588;SDS011;11972;48.078;11.876;2023-01-15T20:45:28;9.98;;;8.60;;
23588;SDS011;11972;48.078;11.876;2023-01-15T20:49:28;2.95;;;2.45;;
23588;SDS011;11972;48.078;11.876;2023-01-15T20:53:32;4.60;;;4.07;;
23588;SDS011;11972;48.078;11.876;2023-01-15T20:57:33;14.43;;;7.55;;
23588;SDS011;11972;48.078;11.876;2023-01-15T21:01:34;2.63;;;1.40;;
23588;SDS011;11972;48.078;11.876;2023-01-15T21:05:35;2.90;;;0.40;;
23588;SDS011;11972;48.078;11.876;2023-01-15T21:09:35;0.60;;;0.32;;
23588;SDS011;11972;48.078;11.876;2023-01-15T21:13:36;0.80;;;0.40;;
23588;SDS011;11972;48.078;11.876;2023-01-15T21:17:40;0.98;;;0.32;;
23588;SDS011;11972;48.078;11.876;2023-01-15T21:21:40;1.08;;;0.50;;
23588;SDS011;11972;48.078;11.876;2023-01-15T21:25:43;0.68;;;0.38;;
23588;SDS011;11972;48.078;11.876;2023-01-15T21:29:45;0.55;;;0.55;;
23588;SDS011;11972;48.078;11.876;2023-01-15T21:33:51;1.63;;;0.20;;
23588;SDS011;11972;48.078;11.876;2023-01-15T21:37:53;0.38;;;0.30;;
23588;SDS011;11972;48.078;11.876;2023-01-15T21:41:53;0.57;;;0.40;;
23588;SDS011;11972;48.078;11.876;2023-01-15T21:46:12;1.02;;;0.80;;
23588;SDS011;11972;48.078;11.876;2023-01-15T21:50:13;0.77;;;0.60;;
23588;SDS011;11972;48.078;11.876;2023-01-15T21:54:15;1.02;;;0.70;;
23588;SDS011;11972;48.078;11.876;2023-01-15T21:58:15;1.67;;;1.20;;
23588;SDS011;11972;48.078;11.876;2023-01-15T22:02:16;1.48;;;0.98;;
23588;SDS011;11972;48.078;11.876;2023-01-15T22:06:20;2.47;;;1.80;;
23588;SDS011;11972;48.078;11.876;2023-01-15T22:10:20;5.35;;;2.90;;
23588;SDS011;11972;48.078;11.876;2023-01-15T22:14:24;3.10;;;1.40;;
23588;SDS011;11972;48.078;11.876;2023-01-15T22:18:27;3.20;;;1.92;;
23588;SDS011;11972;48.078;11.876;2023-01-15T22:22:27;4.30;;;1.75;;
23588;SDS011;11972;48.078;11.876;2023-01-15T22:26:32;4.40;;;1.60;;
23588;SDS011;11972;48.078;11.876;2023-01-15T22:30:34;2.00;;;1.50;;
23588;SDS011;11972;48.078;11.876;2023-01-15T22:34:37;3.55;;;1.50;;
23588;SDS011;11972;48.078;11.876;2023-01-15T22:38:38;3.35;;;1.50;;
23588;SDS011;11972;48.078;11.876;2023-01-15T22:42:39;3.40;;;1.90;;
23588;SDS011;11972;48.078;11.876;2023-01-15T22:46:39;4.47;;;1.90;;
23588;SDS011;11972;48.078;11.876;2023-01-15T22:50:40;4.28;;;2.80;;
23588;SDS011;11972;48.078;11.876;2023-01-15T22:54:40;5.57;;;4.00;;
23588;SDS011;11972;48.078;11.876;2023-01-15T22:58:43;7.18;;;3.78;;
23588;SDS011;11972;48.078;11.876;2023-01-15T23:02:43;4.90;;;2.55;;
23588;SDS011;11972;48.078;11.876;2023-01-15T23:11:13;8.05;;;4.10;;
23588;SDS011;11972;48.078;11.876;2023-01-15T23:15:15;10.73;;;4.72;;
23588;SDS011;11972;48.078;11.876;2023-01-15T23:19:15;8.40;;;4.82;;
23588;SDS011;11972;48.078;11.876;2023-01-15T23:23:16;7.05;;;3.33;;
23588;SDS011;11972;48.078;11.876;2023-01-15T23:27:16;3.80;;;1.70;;
23588;SDS011;11972;48.078;11.876;2023-01-15T23:31:17;3.10;;;1.60;;
23588;SDS011;11972;48.078;11.876;2023-01-15T23:35:18;1.02;;;0.80;;
23588;SDS011;11972;48.078;11.876;2023-01-15T23:39:19;0.40;;;0.38;;
23588;SDS011;11972;48.078;11.876;2023-01-15T23:43:19;0.63;;;0.50;;
23588;SDS011;11972;48.078;11.876;2023-01-15T23:47:38;0.88;;;0.60;;
23588;SDS011;11972;48.078;11.876;2023-01-15T23:51:39;1.30;;;0.50;;
23588;SDS011;11972;48.078;11.876;2023-01-15T23:55:39;0.80;;;0.60;;
23588;SDS011;11972;48.078;11.876;2023-01-15T23:59:39;0.98;;;0.60;;
